Time;durP1;ratioP1;P1;durP2;ratioP2;P2;SDS_P1;SDS_P2;PMS_P1;PMS_P2;Temp;Humidity;BMP_temperature;BMP_pressure;BME280_temperature;BME280_humidity;BME280_pressure;Samples;Min_cycle;Max_cycle;Signal;HPM_P1;HPM_P2
2022/09/28 00:01:00;;;;;;;7.97;5.15;;;;;;;;;;5024513;28;20106;-94
2022/09/28 00:03:26;;;;;;;7.10;4.28;;;;;;;;;;5022611;28;20045;-93
2022/09/28 00:05:53;;;;;;;6.40;4.03;;;;;;;;;;5023350;28;20054;-93
2022/09/28 00:08:19;;;;;;;6.75;4.38;;;;;;;;;;5023317;28;20112;-93
2022/09/28 00:10:54;;;;;;;5.38;4.80;;;;;;;;;;5023615;28;20117;-93
2022/09/28 00:13:22;;;;;;;6.50;3.38;;;;;;;;;;5022590;28;20072;-93
2022/09/28 00:15:58;;;;;;;4.93;3.80;;;;;;;;;;5022347;28;20050;-94
2022/09/28 00:18:24;;;;;;;4.93;3.85;;;;;;;;;;5021528;28;20473;-93
2022/09/28 00:20:59;;;;;;;4.53;2.67;;;;;;;;;;5021809;28;20050;-94
2022/09/28 00:23:25;;;;;;;3.40;3.10;;;;;;;;;;5023719;28;20046;-94
2022/09/28 00:25:52;;;;;;;3.67;3.10;;;;;;;;;;5023350;28;20053;-94
2022/09/28 00:28:18;;;;;;;4.55;3.28;;;;;;;;;;5021032;28;20049;-93
2022/09/28 00:30:46;;;;;;;5.55;3.05;;;;;;;;;;5021867;28;20077;-94
2022/09/28 00:33:13;;;;;;;3.67;3.17;;;;;;;;;;5022970;28;20411;-94
2022/09/28 00:35:39;;;;;;;6.25;3.63;;;;;;;;;;5022771;28;20058;-94
2022/09/28 00:38:08;;;;;;;4.53;3.47;;;;;;;;;;5022197;28;20077;-93
2022/09/28 00:40:34;;;;;;;4.57;3.75;;;;;;;;;;5021983;28;20092;-93
2022/09/28 00:43:16;;;;;;;3.95;3.55;;;;;;;;;;5021418;28;20100;-93
2022/09/28 00:45:43;;;;;;;3.05;2.40;;;;;;;;;;5020627;28;20057;-94
2022/09/28 00:48:11;;;;;;;3.38;3.03;;;;;;;;;;5023013;28;20053;-94
2022/09/28 00:50:38;;;;;;;3.97;3.20;;;;;;;;;;5023110;28;20046;-93
2022/09/28 00:53:06;;;;;;;3.72;3.20;;;;;;;;;;5021345;28;20526;-94
2022/09/28 00:55:36;;;;;;;3.55;3.25;;;;;;;;;;5021077;28;20069;-94
2022/09/28 00:58:04;;;;;;;5.07;3.08;;;;;;;;;;5023195;28;20084;-94
2022/09/28 01:00:31;;;;;;;5.53;3.85;;;;;;;;;;5022071;28;20045;-95
2022/09/28 01:02:58;;;;;;;4.05;3.05;;;;;;;;;;5022659;28;20165;-95
2022/09/28 01:05:26;;;;;;;4.60;2.83;;;;;;;;;;5023040;28;20088;-94
2022/09/28 01:07:54;;;;;;;7.53;4.72;;;;;;;;;;5021792;28;20054;-94
2022/09/28 01:10:21;;;;;;;6.53;4.05;;;;;;;;;;5022355;28;20076;-93
2022/09/28 01:12:47;;;;;;;7.35;3.85;;;;;;;;;;5021049;28;20465;-94
2022/09/28 01:15:14;;;;;;;5.25;4.38;;;;;;;;;;5020145;28;20050;-94
2022/09/28 01:17:53;;;;;;;5.47;3.20;;;;;;;;;;5021900;28;20050;-93
2022/09/28 01:20:46;;;;;;;9.68;5.32;;;;;;;;;;5022132;28;20058;-93
2022/09/28 01:23:24;;;;;;;7.05;4.60;;;;;;;;;;5021991;28;20105;-94
2022/09/28 01:25:53;;;;;;;8.63;5.15;;;;;;;;;;5021028;28;20054;-94
2022/09/28 01:28:21;;;;;;;7.13;4.40;;;;;;;;;;5022471;28;20049;-93
2022/09/28 01:30:51;;;;;;;6.30;3.92;;;;;;;;;;5022177;28;20102;-94
2022/09/28 01:33:20;;;;;;;9.27;6.05;;;;;;;;;;5020564;28;20038;-94
2022/09/28 01:35:49;;;;;;;8.27;5.93;;;;;;;;;;5020619;28;20072;-95
2022/09/28 01:38:18;;;;;;;7.15;4.88;;;;;;;;;;5019208;28;20453;-94
2022/09/28 01:40:46;;;;;;;5.60;4.47;;;;;;;;;;5019661;28;20046;-94
2022/09/28 01:43:15;;;;;;;9.20;5.15;;;;;;;;;;5021460;28;20065;-94
2022/09/28 01:45:45;;;;;;;7.57;5.25;;;;;;;;;;5021173;28;20485;-93
2022/09/28 01:48:13;;;;;;;9.02;4.18;;;;;;;;;;5021062;28;20461;-94
2022/09/28 01:50:42;;;;;;;7.25;5.32;;;;;;;;;;5020215;28;20050;-95
2022/09/28 01:53:12;;;;;;;8.52;6.10;;;;;;;;;;5020933;28;20049;-94
2022/09/28 01:55:39;;;;;;;9.70;5.55;;;;;;;;;;5022019;28;20131;-94
2022/09/28 01:58:11;;;;;;;6.22;3.60;;;;;;;;;;5022534;28;20092;-95
2022/09/28 02:00:40;;;;;;;8.10;4.53;;;;;;;;;;5021855;28;20481;-95
2022/09/28 02:03:11;;;;;;;4.47;2.90;;;;;;;;;;5022338;28;20411;-94
2022/09/28 02:05:39;;;;;;;7.35;3.55;;;;;;;;;;5021530;28;20096;-93
2022/09/28 02:08:08;;;;;;;5.10;3.08;;;;;;;;;;5020438;28;20493;-94
2022/09/28 02:10:38;;;;;;;4.63;3.88;;;;;;;;;;5020294;28;20049;-94
2022/09/28 02:13:05;;;;;;;5.13;4.72;;;;;;;;;;5020998;28;20494;-94
2022/09/28 02:15:35;;;;;;;4.43;3.33;;;;;;;;;;5021254;28;20100;-94
2022/09/28 02:18:01;;;;;;;4.45;3.97;;;;;;;;;;5020072;28;20049;-93
2022/09/28 02:20:31;;;;;;;3.08;2.75;;;;;;;;;;5019781;28;20042;-94
2022/09/28 02:22:59;;;;;;;4.97;2.85;;;;;;;;;;5020691;28;20403;-94
2022/09/28 02:25:28;;;;;;;4.75;3.38;;;;;;;;;;5020489;28;20502;-94
2022/09/28 02:27:56;;;;;;;3.90;3.10;;;;;;;;;;5021339;28;20532;-94
2022/09/28 02:30:23;;;;;;;5.78;3.55;;;;;;;;;;5021055;28;20049;-96
2022/09/28 02:32:52;;;;;;;6.32;4.18;;;;;;;;;;5020175;28;20081;-95
2022/09/28 02:35:19;;;;;;;7.78;4.32;;;;;;;;;;5019748;28;20053;-95
2022/09/28 02:37:48;;;;;;;6.13;3.72;;;;;;;;;;5020262;28;20038;-95
2022/09/28 02:40:15;;;;;;;5.30;3.10;;;;;;;;;;5020464;28;20042;-96
2022/09/28 02:42:46;;;;;;;4.70;3.95;;;;;;;;;;5020767;28;20061;-96
2022/09/28 02:45:15;;;;;;;4.75;4.18;;;;;;;;;;5020497;28;20053;-95
2022/09/28 02:47:51;;;;;;;10.75;5.78;;;;;;;;;;5021171;28;20064;-95
2022/09/28 02:50:21;;;;;;;5.80;3.72;;;;;;;;;;5020389;28;20077;-95
2022/09/28 02:52:57;;;;;;;4.43;4.03;;;;;;;;;;5019973;28;20064;-95
2022/09/28 02:55:30;;;;;;;6.47;5.28;;;;;;;;;;5018742;28;20046;-95
2022/09/28 02:58:03;;;;;;;8.73;3.72;;;;;;;;;;5021466;28;20062;-95
2022/09/28 03:00:32;;;;;;;7.88;3.97;;;;;;;;;;5021267;28;20129;-95
2022/09/28 03:03:00;;;;;;;8.60;5.05;;;;;;;;;;5021215;28;20053;-94
2022/09/28 03:05:31;;;;;;;8.35;4.03;;;;;;;;;;5020842;28;20049;-93
2022/09/28 03:08:00;;;;;;;9.98;5.10;;;;;;;;;;5021871;28;20104;-95
2022/09/28 03:10:30;;;;;;;7.05;4.55;;;;;;;;;;5020958;28;20046;-94
2022/09/28 03:12:57;;;;;;;7.30;4.45;;;;;;;;;;5020761;28;20054;-94
2022/09/28 03:15:26;;;;;;;7.40;5.38;;;;;;;;;;5020690;28;20583;-94
2022/09/28 03:17:52;;;;;;;9.80;5.70;;;;;;;;;;5020889;28;20057;-94
2022/09/28 03:20:19;;;;;;;9.68;4.05;;;;;;;;;;5021055;28;20073;-94
2022/09/28 03:22:46;;;;;;;12.55;5.97;;;;;;;;;;5021040;28;20088;-95
2022/09/28 03:25:14;;;;;;;7.18;4.00;;;;;;;;;;5020538;28;20096;-94
2022/09/28 03:27:40;;;;;;;8.15;5.35;;;;;;;;;;5019560;28;20113;-95
2022/09/28 03:30:08;;;;;;;5.35;3.95;;;;;;;;;;5019500;28;20049;-95
2022/09/28 03:32:34;;;;;;;6.22;4.45;;;;;;;;;;5020440;28;20054;-94
2022/09/28 03:35:01;;;;;;;6.07;4.47;;;;;;;;;;5020481;28;20053;-95
2022/09/28 03:37:27;;;;;;;6.85;4.95;;;;;;;;;;5020281;28;20104;-95
2022/09/28 03:39:54;;;;;;;11.70;5.13;;;;;;;;;;5019226;28;20050;-95
2022/09/28 03:42:22;;;;;;;9.73;5.85;;;;;;;;;;5020167;28;20076;-95
2022/09/28 03:44:48;;;;;;;9.50;5.65;;;;;;;;;;5019688;28;20046;-96
2022/09/28 03:47:16;;;;;;;7.93;4.40;;;;;;;;;;4999929;28;20253;-95
2022/09/28 03:49:44;;;;;;;6.20;4.15;;;;;;;;;;5000325;28;20069;-95
2022/09/28 03:52:11;;;;;;;8.48;4.50;;;;;;;;;;5019003;28;20046;-94
2022/09/28 03:54:37;;;;;;;13.32;6.30;;;;;;;;;;5020157;28;20065;-95
2022/09/28 03:57:04;;;;;;;7.45;4.70;;;;;;;;;;5019044;28;20053;-95
2022/09/28 03:59:32;;;;;;;10.80;5.85;;;;;;;;;;5018616;28;20050;-95
2022/09/28 04:01:58;;;;;;;6.80;4.63;;;;;;;;;;5019239;28;20042;-95
2022/09/28 04:04:25;;;;;;;7.20;5.07;;;;;;;;;;5022478;28;20046;-94
2022/09/28 04:06:51;;;;;;;10.15;5.00;;;;;;;;;;5023223;28;20100;-94
2022/09/28 04:09:18;;;;;;;7.60;4.55;;;;;;;;;;5024647;28;20100;-94
2022/09/28 04:11:44;;;;;;;7.55;4.28;;;;;;;;;;5022620;28;20089;-95
2022/09/28 04:14:11;;;;;;;8.18;4.28;;;;;;;;;;5023923;28;20045;-95
2022/09/28 04:16:38;;;;;;;11.30;4.63;;;;;;;;;;5023164;28;20469;-95
2022/09/28 04:19:05;;;;;;;7.10;4.05;;;;;;;;;;5021568;28;20045;-94
2022/09/28 04:21:31;;;;;;;8.25;4.57;;;;;;;;;;5021955;28;20046;-94
2022/09/28 04:23:58;;;;;;;9.18;5.18;;;;;;;;;;5024167;28;20069;-95
2022/09/28 04:26:25;;;;;;;9.00;4.57;;;;;;;;;;5023524;28;20170;-95
2022/09/28 04:31:41;;;;;;;15.82;6.10;;;;;;;;;;5022445;28;20065;-94
2022/09/28 04:34:08;;;;;;;10.93;5.28;;;;;;;;;;5022848;28;20096;-95
2022/09/28 04:36:34;;;;;;;12.88;5.95;;;;;;;;;;5022627;28;20069;-94
2022/09/28 04:39:01;;;;;;;10.00;5.78;;;;;;;;;;5022643;28;20050;-95
2022/09/28 04:41:27;;;;;;;7.55;4.85;;;;;;;;;;5022333;28;20077;-95
2022/09/28 04:43:54;;;;;;;9.00;7.07;;;;;;;;;;5022459;28;20116;-95
2022/09/28 04:46:20;;;;;;;10.18;6.22;;;;;;;;;;5022406;28;20050;-95
2022/09/28 04:48:48;;;;;;;7.70;5.13;;;;;;;;;;5023768;28;20046;-95
2022/09/28 04:51:14;;;;;;;8.13;4.18;;;;;;;;;;5022630;28;20049;-94
2022/09/28 04:53:41;;;;;;;10.10;5.10;;;;;;;;;;5021497;28;20041;-94
2022/09/28 04:56:08;;;;;;;10.02;5.38;;;;;;;;;;5022107;28;20065;-95
2022/09/28 04:58:35;;;;;;;9.32;5.30;;;;;;;;;;5020764;28;20050;-95
2022/09/28 05:01:03;;;;;;;10.77;5.20;;;;;;;;;;5022011;28;20050;-95
2022/09/28 05:03:29;;;;;;;8.48;5.82;;;;;;;;;;5019697;28;20050;-94
2022/09/28 05:05:57;;;;;;;14.93;7.13;;;;;;;;;;5013322;28;20073;-95
2022/09/28 05:08:24;;;;;;;10.85;7.05;;;;;;;;;;5015723;28;20833;-95
2022/09/28 05:10:56;;;;;;;12.45;7.70;;;;;;;;;;5018442;28;20045;-95
2022/09/28 05:13:23;;;;;;;12.57;7.00;;;;;;;;;;5014392;28;20065;-96
2022/09/28 05:15:51;;;;;;;8.75;5.55;;;;;;;;;;5015579;28;20073;-94
2022/09/28 05:18:18;;;;;;;8.10;6.00;;;;;;;;;;5015686;28;20063;-95
2022/09/28 05:20:44;;;;;;;9.25;6.20;;;;;;;;;;5015594;28;20049;-94
2022/09/28 05:23:14;;;;;;;7.53;6.40;;;;;;;;;;5016010;28;20100;-95
2022/09/28 05:25:41;;;;;;;7.10;4.97;;;;;;;;;;5017384;28;20049;-94
2022/09/28 05:28:07;;;;;;;7.85;5.53;;;;;;;;;;5022355;28;20078;-95
2022/09/28 05:30:34;;;;;;;9.43;4.90;;;;;;;;;;5022526;28;20042;-95
2022/09/28 05:33:01;;;;;;;12.50;6.10;;;;;;;;;;5020916;28;20091;-95
2022/09/28 05:35:28;;;;;;;8.85;6.68;;;;;;;;;;5019383;28;20049;-95
2022/09/28 05:37:54;;;;;;;10.73;6.20;;;;;;;;;;5011886;28;20100;-94
2022/09/28 05:40:22;;;;;;;9.95;5.65;;;;;;;;;;5019221;28;20853;-96
2022/09/28 05:42:49;;;;;;;9.27;5.07;;;;;;;;;;5021478;28;20986;-96
2022/09/28 05:45:15;;;;;;;6.60;4.07;;;;;;;;;;5005392;28;20058;-96
2022/09/28 05:47:44;;;;;;;7.22;4.93;;;;;;;;;;5002505;28;20046;-95
2022/09/28 05:50:14;;;;;;;6.25;4.78;;;;;;;;;;5002481;28;20052;-96
2022/09/28 05:52:41;;;;;;;9.10;5.60;;;;;;;;;;5008809;28;20054;-95
2022/09/28 05:55:08;;;;;;;9.15;5.35;;;;;;;;;;5020350;28;20084;-95
2022/09/28 05:57:35;;;;;;;13.45;5.75;;;;;;;;;;5015305;28;20096;-95
2022/09/28 06:00:02;;;;;;;7.45;4.45;;;;;;;;;;5021307;28;20053;-95
2022/09/28 06:02:29;;;;;;;6.13;3.83;;;;;;;;;;5021961;28;20046;-94
2022/09/28 06:04:55;;;;;;;8.45;5.28;;;;;;;;;;5021617;28;20050;-94
2022/09/28 06:07:22;;;;;;;9.38;5.63;;;;;;;;;;5020762;28;20046;-96
2022/09/28 06:09:48;;;;;;;11.00;6.50;;;;;;;;;;5012801;28;20085;-93
2022/09/28 06:12:15;;;;;;;7.20;5.32;;;;;;;;;;5001642;28;20054;-95
2022/09/28 06:14:44;;;;;;;7.13;4.45;;;;;;;;;;5012963;28;20049;-92
2022/09/28 06:17:10;;;;;;;8.82;6.10;;;;;;;;;;5021077;28;20124;-93
2022/09/28 06:19:37;;;;;;;10.48;6.47;;;;;;;;;;5020037;28;20054;-94
2022/09/28 06:22:04;;;;;;;9.55;5.25;;;;;;;;;;5009725;28;20659;-92
2022/09/28 06:24:30;;;;;;;9.88;6.25;;;;;;;;;;5000518;28;20104;-92
2022/09/28 06:26:57;;;;;;;9.32;6.28;;;;;;;;;;5001100;28;20102;-92
2022/09/28 06:29:23;;;;;;;9.32;5.75;;;;;;;;;;5000775;28;20050;-93
2022/09/28 06:31:51;;;;;;;8.80;6.53;;;;;;;;;;5014098;28;20053;-92
2022/09/28 06:34:18;;;;;;;9.95;6.00;;;;;;;;;;5020832;28;20089;-92
2022/09/28 06:36:44;;;;;;;6.40;4.22;;;;;;;;;;5020207;28;20057;-92
2022/09/28 06:39:11;;;;;;;9.10;5.25;;;;;;;;;;5021330;28;20046;-93
2022/09/28 06:41:37;;;;;;;8.13;6.05;;;;;;;;;;5020161;28;20061;-92
2022/09/28 06:44:03;;;;;;;9.40;7.30;;;;;;;;;;5010847;28;20116;-92
2022/09/28 06:46:30;;;;;;;8.20;4.45;;;;;;;;;;5000445;28;20096;-92
2022/09/28 06:48:58;;;;;;;7.93;5.95;;;;;;;;;;5013250;28;20053;-92
2022/09/28 06:51:25;;;;;;;6.10;4.50;;;;;;;;;;5020899;28;20118;-92
2022/09/28 06:53:52;;;;;;;6.65;4.90;;;;;;;;;;5022093;28;20050;-91
2022/09/28 06:56:19;;;;;;;3.45;3.13;;;;;;;;;;5020756;28;20050;-92
2022/09/28 06:58:46;;;;;;;8.07;6.38;;;;;;;;;;5019244;28;20140;-91
2022/09/28 07:01:12;;;;;;;7.43;6.20;;;;;;;;;;5020971;28;20045;-92
2022/09/28 07:03:39;;;;;;;7.60;5.65;;;;;;;;;;5020309;28;20042;-91
2022/09/28 07:06:10;;;;;;;10.18;6.15;;;;;;;;;;5019283;28;20049;-91
2022/09/28 07:08:36;;;;;;;12.13;7.35;;;;;;;;;;5001285;28;20050;-92
2022/09/28 07:11:05;;;;;;;8.50;7.07;;;;;;;;;;5001305;28;20113;-91
2022/09/28 07:13:32;;;;;;;11.82;7.22;;;;;;;;;;5000157;28;20050;-90
2022/09/28 07:15:59;;;;;;;11.48;7.30;;;;;;;;;;5000329;28;20050;-92
2022/09/28 07:18:28;;;;;;;12.05;7.18;;;;;;;;;;4997825;28;20070;-91
2022/09/28 07:20:56;;;;;;;7.53;5.85;;;;;;;;;;5000529;28;20052;-92
2022/09/28 07:23:25;;;;;;;8.90;6.70;;;;;;;;;;5018177;28;20133;-92
2022/09/28 07:25:51;;;;;;;9.50;6.75;;;;;;;;;;5020151;28;20053;-92
2022/09/28 07:28:19;;;;;;;9.90;7.07;;;;;;;;;;5018663;28;20042;-92
2022/09/28 07:30:45;;;;;;;8.52;6.80;;;;;;;;;;5017349;28;20126;-92
2022/09/28 07:33:13;;;;;;;8.82;6.97;;;;;;;;;;4999380;28;20109;-93
2022/09/28 07:35:40;;;;;;;5.65;4.18;;;;;;;;;;5000074;28;20837;-91
2022/09/28 07:38:08;;;;;;;8.60;6.03;;;;;;;;;;5009046;28;20049;-92
2022/09/28 07:43:20;;;;;;;8.63;7.82;;;;;;;;;;5012800;28;20104;-92
2022/09/28 07:45:47;;;;;;;7.18;5.47;;;;;;;;;;4998727;28;20157;-92
2022/09/28 07:48:14;;;;;;;11.43;7.28;;;;;;;;;;4999754;28;20495;-92
2022/09/28 07:50:41;;;;;;;9.23;8.27;;;;;;;;;;4993970;28;20050;-93
2022/09/28 07:53:08;;;;;;;8.15;6.55;;;;;;;;;;4993384;28;20047;-93
2022/09/28 07:55:36;;;;;;;7.78;7.00;;;;;;;;;;5006032;28;20106;-92
2022/09/28 07:58:02;;;;;;;7.30;6.55;;;;;;;;;;5014653;28;20046;-92
2022/09/28 08:00:31;;;;;;;9.63;8.02;;;;;;;;;;5014500;28;20049;-92
2022/09/28 08:02:59;;;;;;;7.82;5.25;;;;;;;;;;5017428;28;20434;-92
2022/09/28 08:05:25;;;;;;;7.20;5.80;;;;;;;;;;5018145;28;20053;-93
2022/09/28 08:07:52;;;;;;;7.13;6.43;;;;;;;;;;5015804;28;20054;-92
2022/09/28 08:10:19;;;;;;;7.40;6.68;;;;;;;;;;5016057;28;20117;-93
2022/09/28 08:12:47;;;;;;;8.52;6.93;;;;;;;;;;5014825;28;20064;-92
2022/09/28 08:15:14;;;;;;;5.32;4.82;;;;;;;;;;5016689;28;20053;-92
2022/09/28 08:17:46;;;;;;;5.95;5.38;;;;;;;;;;5017892;28;20050;-92
2022/09/28 08:22:56;;;;;;;4.80;3.80;;;;;;;;;;5012227;28;20112;-92
2022/09/28 08:25:23;;;;;;;5.78;5.00;;;;;;;;;;4998113;28;20093;-92
2022/09/28 08:27:51;;;;;;;5.22;4.05;;;;;;;;;;4997814;28;20117;-94
2022/09/28 08:30:18;;;;;;;2.83;2.60;;;;;;;;;;5017212;28;20129;-94
2022/09/28 08:32:48;;;;;;;2.90;2.65;;;;;;;;;;5023078;28;20042;-91
2022/09/28 08:35:14;;;;;;;8.48;4.30;;;;;;;;;;5021419;28;20050;-92
2022/09/28 08:37:41;;;;;;;9.48;4.85;;;;;;;;;;5017665;28;20137;-92
2022/09/28 08:40:13;;;;;;;4.18;3.75;;;;;;;;;;5016420;28;20046;-93
2022/09/28 08:42:41;;;;;;;6.90;3.55;;;;;;;;;;5019077;28;20120;-91
2022/09/28 08:45:13;;;;;;;4.55;3.15;;;;;;;;;;5020166;28;20077;-92
2022/09/28 08:50:31;;;;;;;6.00;4.20;;;;;;;;;;5019675;28;20132;-93
2022/09/28 08:52:59;;;;;;;5.07;4.22;;;;;;;;;;5017112;28;20105;-93
2022/09/28 08:55:28;;;;;;;4.38;3.75;;;;;;;;;;5016518;28;20092;-93
2022/09/28 08:57:57;;;;;;;4.18;3.60;;;;;;;;;;5017858;28;20074;-93
2022/09/28 09:00:32;;;;;;;3.40;3.10;;;;;;;;;;5018895;28;20072;-92
2022/09/28 09:02:58;;;;;;;4.72;3.70;;;;;;;;;;5017712;28;20081;-92
2022/09/28 09:05:34;;;;;;;2.40;2.20;;;;;;;;;;5019147;28;20045;-92
2022/09/28 09:08:06;;;;;;;3.40;3.00;;;;;;;;;;5022549;28;20050;-92
2022/09/28 09:10:41;;;;;;;3.70;2.63;;;;;;;;;;5023269;28;20099;-92
2022/09/28 09:13:17;;;;;;;4.85;2.53;;;;;;;;;;5022911;28;20050;-92
2022/09/28 09:15:47;;;;;;;;;;;;;;;;;;5023513;28;20077;-93
2022/09/28 09:18:29;;;;;;;3.88;2.28;;;;;;;;;;5022073;28;19922;-92
2022/09/28 09:20:57;;;;;;;2.90;2.70;;;;;;;;;;5021950;28;20490;-92
2022/09/28 09:23:28;;;;;;;2.47;2.08;;;;;;;;;;5022586;28;20046;-92
2022/09/28 09:25:57;;;;;;;2.13;2.03;;;;;;;;;;5022298;28;20108;-92
2022/09/28 09:28:38;;;;;;;3.22;2.72;;;;;;;;;;5021745;28;20108;-92
2022/09/28 09:31:08;;;;;;;3.60;3.40;;;;;;;;;;5012996;28;20053;-92
2022/09/28 09:33:44;;;;;;;3.33;3.13;;;;;;;;;;5021391;28;20113;-92
2022/09/28 09:36:14;;;;;;;4.63;2.45;;;;;;;;;;5021436;28;20045;-92
2022/09/28 09:38:45;;;;;;;3.53;3.33;;;;;;;;;;5022024;28;20057;-92
2022/09/28 09:41:19;;;;;;;3.47;3.17;;;;;;;;;;5021589;28;20057;-92
2022/09/28 09:43:58;;;;;;;3.15;2.28;;;;;;;;;;5021516;28;20069;-92
2022/09/28 09:46:29;;;;;;;6.72;4.00;;;;;;;;;;5021792;28;20050;-92
2022/09/28 09:49:01;;;;;;;3.28;2.50;;;;;;;;;;5020865;28;20045;-92
2022/09/28 09:51:31;;;;;;;2.58;2.38;;;;;;;;;;5021165;28;20042;-91
2022/09/28 09:54:00;;;;;;;3.47;3.03;;;;;;;;;;5019055;28;20042;-92
2022/09/28 09:56:30;;;;;;;4.65;4.25;;;;;;;;;;5019897;28;20069;-91
2022/09/28 09:58:59;;;;;;;2.65;2.42;;;;;;;;;;5021624;28;20050;-92
2022/09/28 10:01:30;;;;;;;3.45;2.78;;;;;;;;;;5020927;28;20045;-93
2022/09/28 10:03:58;;;;;;;3.80;2.42;;;;;;;;;;5021844;28;20427;-92
2022/09/28 10:06:27;;;;;;;4.18;3.83;;;;;;;;;;5021706;28;20106;-92
2022/09/28 10:09:00;;;;;;;4.20;4.00;;;;;;;;;;5020502;28;20137;-92
2022/09/28 10:11:28;;;;;;;3.30;3.08;;;;;;;;;;5020691;28;20096;-93
2022/09/28 10:13:56;;;;;;;5.03;3.70;;;;;;;;;;5021098;28;20054;-92
2022/09/28 10:16:23;;;;;;;5.03;4.68;;;;;;;;;;5021196;28;20613;-93
2022/09/28 10:18:50;;;;;;;3.90;3.35;;;;;;;;;;5020590;28;20109;-92
2022/09/28 10:21:20;;;;;;;4.38;3.13;;;;;;;;;;5020694;28;20076;-92
2022/09/28 10:23:49;;;;;;;5.40;3.97;;;;;;;;;;5021822;28;20050;-92
2022/09/28 10:26:23;;;;;;;3.05;2.55;;;;;;;;;;5021773;28;20037;-93
2022/09/28 10:28:52;;;;;;;4.57;4.28;;;;;;;;;;5020134;28;20763;-92
2022/09/28 10:31:35;;;;;;;4.75;4.38;;;;;;;;;;5019907;28;20177;-92
2022/09/28 10:34:02;;;;;;;4.28;2.72;;;;;;;;;;5021817;28;20042;-92
2022/09/28 10:36:37;;;;;;;3.78;3.50;;;;;;;;;;5021865;28;20120;-92
2022/09/28 10:39:03;;;;;;;3.63;3.33;;;;;;;;;;5020285;28;20050;-92
2022/09/28 10:41:30;;;;;;;6.22;5.82;;;;;;;;;;5020055;28;20046;-92
2022/09/28 10:44:05;;;;;;;4.15;3.85;;;;;;;;;;5020014;28;20650;-92
2022/09/28 10:46:33;;;;;;;4.38;3.97;;;;;;;;;;5020760;28;20129;-92
2022/09/28 10:49:00;;;;;;;4.68;4.30;;;;;;;;;;5019414;28;20049;-91
2022/09/28 10:51:41;;;;;;;4.22;2.97;;;;;;;;;;5020216;28;20046;-92
2022/09/28 10:54:13;;;;;;;4.18;3.95;;;;;;;;;;5020940;28;20101;-92
2022/09/28 10:56:40;;;;;;;3.80;3.50;;;;;;;;;;5020943;28;20082;-92
2022/09/28 10:59:22;;;;;;;2.25;2.03;;;;;;;;;;5020772;28;20104;-92
2022/09/28 11:01:52;;;;;;;4.28;3.88;;;;;;;;;;5019992;28;20115;-92
2022/09/28 11:04:20;;;;;;;3.42;3.13;;;;;;;;;;5021455;28;20049;-92
2022/09/28 11:06:48;;;;;;;6.93;4.18;;;;;;;;;;5021359;28;20073;-91
2022/09/28 11:09:23;;;;;;;4.03;3.58;;;;;;;;;;5020938;28;20054;-91
2022/09/28 11:11:49;;;;;;;3.72;3.47;;;;;;;;;;5022889;28;20050;-92
2022/09/28 11:14:23;;;;;;;4.00;3.72;;;;;;;;;;5025325;28;20115;-92
2022/09/28 11:17:09;;;;;;;5.03;4.65;;;;;;;;;;5024851;28;20100;-91
2022/09/28 11:19:37;;;;;;;3.75;3.38;;;;;;;;;;5023244;28;20046;-92
2022/09/28 11:22:19;;;;;;;4.18;3.33;;;;;;;;;;5025183;28;20053;-92
2022/09/28 11:24:46;;;;;;;4.53;3.55;;;;;;;;;;5024779;28;20401;-92
2022/09/28 11:27:19;;;;;;;4.50;4.20;;;;;;;;;;5024899;28;20046;-92
2022/09/28 11:29:51;;;;;;;5.20;4.95;;;;;;;;;;5024911;28;20046;-92
2022/09/28 11:32:17;;;;;;;4.78;4.47;;;;;;;;;;5023883;28;20050;-93
2022/09/28 11:34:46;;;;;;;3.03;2.80;;;;;;;;;;5024103;28;20046;-92
2022/09/28 11:37:30;;;;;;;4.55;4.25;;;;;;;;;;5023473;28;20042;-91
2022/09/28 11:40:03;;;;;;;3.53;2.30;;;;;;;;;;5023237;28;20101;-92
2022/09/28 11:42:35;;;;;;;4.55;4.22;;;;;;;;;;5023905;28;20119;-92
2022/09/28 11:45:05;;;;;;;4.28;3.95;;;;;;;;;;5024721;28;20050;-91
2022/09/28 11:47:47;;;;;;;2.65;2.45;;;;;;;;;;5024211;28;20048;-93
2022/09/28 11:50:34;;;;;;;5.20;4.88;;;;;;;;;;5023510;28;20108;-91
2022/09/28 11:53:13;;;;;;;4.47;4.20;;;;;;;;;;5023198;28;20069;-91
2022/09/28 11:55:43;;;;;;;3.38;2.55;;;;;;;;;;5023508;28;20053;-92
2022/09/28 11:58:11;;;;;;;4.80;4.47;;;;;;;;;;5023801;28;20106;-92
2022/09/28 12:00:42;;;;;;;4.50;4.10;;;;;;;;;;5024277;28;20046;-92
2022/09/28 12:03:12;;;;;;;4.38;4.13;;;;;;;;;;5023824;28;20144;-91
2022/09/28 12:05:40;;;;;;;4.25;3.95;;;;;;;;;;5024148;28;20050;-92
2022/09/28 12:08:13;;;;;;;2.67;2.50;;;;;;;;;;5024021;28;20104;-92
2022/09/28 12:10:41;;;;;;;3.67;3.38;;;;;;;;;;5023799;28;20073;-91
2022/09/28 12:13:11;;;;;;;6.00;5.60;;;;;;;;;;5022941;28;20062;-92
2022/09/28 12:15:41;;;;;;;3.88;3.58;;;;;;;;;;5003379;28;20557;-92
2022/09/28 12:18:13;;;;;;;4.60;4.28;;;;;;;;;;5004957;28;20043;-91
2022/09/28 12:20:42;;;;;;;5.13;4.82;;;;;;;;;;5005064;28;20077;-92
2022/09/28 12:23:13;;;;;;;4.10;3.80;;;;;;;;;;5004552;28;20046;-91
2022/09/28 12:25:45;;;;;;;3.10;2.97;;;;;;;;;;5023725;28;20065;-91
2022/09/28 12:28:13;;;;;;;4.63;4.32;;;;;;;;;;5024327;28;20054;-92
2022/09/28 12:30:42;;;;;;;3.60;3.28;;;;;;;;;;5023965;28;20046;-91
2022/09/28 12:33:11;;;;;;;3.10;2.80;;;;;;;;;;5022383;28;20104;-91
2022/09/28 12:35:43;;;;;;;2.88;2.67;;;;;;;;;;5022148;28;20588;-92
2022/09/28 12:38:21;;;;;;;2.40;2.08;;;;;;;;;;5023213;28;20050;-91
2022/09/28 12:40:52;;;;;;;3.53;3.30;;;;;;;;;;5013710;28;20046;-92
2022/09/28 12:43:30;;;;;;;4.18;3.88;;;;;;;;;;5023507;28;20045;-91
2022/09/28 12:46:02;;;;;;;4.63;3.40;;;;;;;;;;5024629;28;20046;-92
2022/09/28 12:48:44;;;;;;;3.38;3.10;;;;;;;;;;5023433;28;20054;-92
2022/09/28 12:51:15;;;;;;;4.50;4.20;;;;;;;;;;5021753;28;20049;-92
2022/09/28 12:53:56;;;;;;;4.13;3.08;;;;;;;;;;5023870;28;20116;-92
2022/09/28 12:56:28;;;;;;;6.22;5.57;;;;;;;;;;5023347;28;20476;-91
2022/09/28 12:59:01;;;;;;;5.03;4.65;;;;;;;;;;5023216;28;20057;-92
2022/09/28 13:01:39;;;;;;;6.03;3.65;;;;;;;;;;5022697;28;20042;-91
2022/09/28 13:04:16;;;;;;;4.00;3.78;;;;;;;;;;5022997;28;20042;-91
2022/09/28 13:06:50;;;;;;;2.72;2.42;;;;;;;;;;5023223;28;20049;-91
2022/09/28 13:09:20;;;;;;;3.78;3.47;;;;;;;;;;5022150;28;20050;-91
2022/09/28 13:12:05;;;;;;;4.10;3.80;;;;;;;;;;5022482;28;20110;-91
2022/09/28 13:14:53;;;;;;;3.47;3.17;;;;;;;;;;5022356;28;20449;-92
2022/09/28 13:17:25;;;;;;;4.03;3.65;;;;;;;;;;5018787;28;20484;-90
2022/09/28 13:19:58;;;;;;;3.58;3.22;;;;;;;;;;5013685;28;20050;-91
2022/09/28 13:22:28;;;;;;;3.33;3.03;;;;;;;;;;5008264;28;20043;-92
2022/09/28 13:24:58;;;;;;;4.45;3.55;;;;;;;;;;5013499;28;20083;-92
2022/09/28 13:27:27;;;;;;;4.10;3.80;;;;;;;;;;5018374;28;20050;-91
2022/09/28 13:29:54;;;;;;;4.68;4.38;;;;;;;;;;5012407;28;20053;-91
2022/09/28 13:32:23;;;;;;;3.92;3.65;;;;;;;;;;5019815;28;20080;-91
2022/09/28 13:34:50;;;;;;;4.55;4.25;;;;;;;;;;5021332;28;20050;-91
2022/09/28 13:37:22;;;;;;;4.40;4.10;;;;;;;;;;5012845;28;20141;-91
2022/09/28 13:39:51;;;;;;;4.10;3.80;;;;;;;;;;5019776;28;20057;-91
2022/09/28 13:42:19;;;;;;;;;;;;;;;;;;5020608;28;20046;-91
2022/09/28 13:44:52;;;;;;;3.80;3.50;;;;;;;;;;5021155;28;19976;-92
2022/09/28 13:47:31;;;;;;;2.78;2.58;;;;;;;;;;5018939;28;20076;-91
2022/09/28 13:50:03;;;;;;;5.80;4.05;;;;;;;;;;5012724;28;20061;-91
2022/09/28 13:52:43;;;;;;;3.33;2.63;;;;;;;;;;5002802;28;20750;-91
2022/09/28 13:55:23;;;;;;;2.88;2.67;;;;;;;;;;5013560;28;20042;-92
2022/09/28 13:57:52;;;;;;;3.22;2.75;;;;;;;;;;5016003;28;20042;-92
2022/09/28 14:00:23;;;;;;;4.30;2.90;;;;;;;;;;5013370;28;20050;-91
2022/09/28 14:02:53;;;;;;;4.00;3.72;;;;;;;;;;5021735;28;20081;-91
2022/09/28 14:05:41;;;;;;;3.72;3.50;;;;;;;;;;5019082;28;20053;-92
2022/09/28 14:08:22;;;;;;;4.38;4.05;;;;;;;;;;5018109;28;20053;-91
2022/09/28 14:10:50;;;;;;;6.10;5.70;;;;;;;;;;5018269;28;20460;-91
2022/09/28 14:13:31;;;;;;;5.28;3.00;;;;;;;;;;5014482;28;20042;-91
2022/09/28 14:16:13;;;;;;;4.22;3.53;;;;;;;;;;5005992;28;20070;-92
2022/09/28 14:18:41;;;;;;;5.05;4.57;;;;;;;;;;5012879;28;20517;-92
2022/09/28 14:21:40;;;;;;;4.03;3.72;;;;;;;;;;5009914;28;20050;-91
2022/09/28 14:24:12;;;;;;;3.65;3.40;;;;;;;;;;5004992;28;20046;-90
2022/09/28 14:26:59;;;;;;;4.97;4.57;;;;;;;;;;5014783;28;20545;-91
2022/09/28 14:29:28;;;;;;;2.60;2.40;;;;;;;;;;5020867;28;20054;-91
2022/09/28 14:31:55;;;;;;;5.80;5.10;;;;;;;;;;5021588;28;20065;-92
2022/09/28 14:34:31;;;;;;;5.43;5.05;;;;;;;;;;5019304;28;20061;-92
2022/09/28 14:42:28;;;;;;;4.95;4.10;;;;;;;;;;5016835;28;20383;-92
2022/09/28 14:45:13;;;;;;;3.00;2.80;;;;;;;;;;5016562;28;20041;-91
2022/09/28 14:47:41;;;;;;;4.30;4.00;;;;;;;;;;5021165;28;20104;-92
2022/09/28 14:50:22;;;;;;;5.10;4.65;;;;;;;;;;5018171;28;20049;-92
2022/09/28 14:52:50;;;;;;;3.33;2.75;;;;;;;;;;5019203;28;20046;-91
2022/09/28 14:55:19;;;;;;;4.30;3.90;;;;;;;;;;5017186;28;20107;-91
2022/09/28 14:57:51;;;;;;;3.65;3.35;;;;;;;;;;5020247;28;20053;-90
2022/09/28 15:00:20;;;;;;;3.40;3.20;;;;;;;;;;5011791;28;20077;-91
2022/09/28 15:02:48;;;;;;;3.10;2.90;;;;;;;;;;5000144;28;20111;-91
2022/09/28 15:05:17;;;;;;;4.28;3.33;;;;;;;;;;4997062;28;20400;-92
2022/09/28 15:07:46;;;;;;;3.75;3.45;;;;;;;;;;5000996;28;20054;-92
2022/09/28 15:10:24;;;;;;;4.90;3.97;;;;;;;;;;5020162;28;20118;-92
2022/09/28 15:12:52;;;;;;;3.47;2.53;;;;;;;;;;5019311;28;20065;-91
2022/09/28 15:15:25;;;;;;;3.42;2.83;;;;;;;;;;5019058;28;20480;-92